Spink Colony, South Dakota
Current Conditions -  °F | °C
As of 2:55 AM on Thursday 23 Oct 2014 (Local Time) from KHON Reporting Station
Clear Clear  
Wind Chill: 39°   Ceiling: Unl
Heat Index: 43°   Visibility: 10mi
Dew Point: 42°   Wind: 6mph
Humidity: 97%   Direction: 190°S
Pressure: 29.98"   Gusts: NA
Location:  44.7634°N, 98.2811°W
Report Text: KHON 230755Z AUTO 19005KT 10SM CLR 06/06 A2998 RMK AO2 SLP157 T00610056
Loading
Personal Weather Stations






























Interactive Weather Map
Tropical Storm Tracking
New forecast layout! Learn more

10-Day Weather Forecast

Advertisements
Track Severe Weather on mobile